createdAt,value
2023-03-17T00:02:16.615Z,11.32
2023-03-17T00:07:18.187Z,7.50
2023-03-17T00:12:19.845Z,9.45
2023-03-17T00:17:21.233Z,8.57
2023-03-17T00:22:22.634Z,8.77
2023-03-17T00:27:24.063Z,9.18
2023-03-17T00:32:25.512Z,7.53
2023-03-17T00:37:26.946Z,8.98
2023-03-17T00:42:28.384Z,8.82
2023-03-17T00:47:29.834Z,7.25
2023-03-17T00:52:31.488Z,9.63
2023-03-17T00:57:33.012Z,10.68
2023-03-17T01:02:34.741Z,7.78
2023-03-17T01:07:37.163Z,8.10
2023-03-17T01:12:38.557Z,9.52
2023-03-17T01:17:40.623Z,9.88
2023-03-17T01:22:42.084Z,9.90
2023-03-17T01:27:45.043Z,11.43
2023-03-17T01:32:46.801Z,9.07
2023-03-17T01:37:49.006Z,10.43
2023-03-17T01:43:02.497Z,11.00
2023-03-17T01:48:04.093Z,10.43
2023-03-17T01:53:06.138Z,9.15
2023-03-17T01:58:08.016Z,8.60
2023-03-17T02:03:09.771Z,9.23
2023-03-17T02:08:11.708Z,10.20
2023-03-17T02:13:13.796Z,9.63
2023-03-17T02:18:15.996Z,10.32
2023-03-17T02:23:19.354Z,8.90
2023-03-17T02:28:26.036Z,8.45
2023-03-17T02:33:27.746Z,8.68
2023-03-17T02:38:29.161Z,9.27
2023-03-17T02:43:30.705Z,9.00
2023-03-17T02:48:33.142Z,8.23
2023-03-17T02:53:34.581Z,8.70
2023-03-17T02:58:36.163Z,9.60
2023-03-17T03:03:37.750Z,10.63
2023-03-17T03:08:39.166Z,10.48
2023-03-17T03:13:40.547Z,9.32
2023-03-17T03:18:41.983Z,10.77
2023-03-17T03:23:43.420Z,10.48
2023-03-17T03:28:44.893Z,11.73
2023-03-17T03:33:46.367Z,10.70
2023-03-17T03:38:47.799Z,11.30
2023-03-17T03:43:49.209Z,10.00
2023-03-17T03:48:50.633Z,9.98
2023-03-17T03:53:52.023Z,8.80
2023-03-17T03:58:53.458Z,10.02
2023-03-17T04:03:54.873Z,9.98
2023-03-17T04:08:58.256Z,8.57
2023-03-17T04:13:59.877Z,9.85
2023-03-17T04:19:01.707Z,9.13
2023-03-17T04:24:05.173Z,9.43
2023-03-17T04:29:08.859Z,9.85
2023-03-17T04:34:15.660Z,10.52
2023-03-17T04:39:17.186Z,8.30
2023-03-17T04:44:18.689Z,8.60
2023-03-17T04:49:20.117Z,10.70
2023-03-17T04:54:22.017Z,9.70
2023-03-17T04:59:23.486Z,8.30
2023-03-17T05:04:31.734Z,8.18
2023-03-17T05:09:33.721Z,8.07
2023-03-17T05:14:35.470Z,9.32
2023-03-17T05:19:36.907Z,8.60
2023-03-17T05:24:38.304Z,8.25
2023-03-17T05:29:39.755Z,8.13
2023-03-17T05:34:41.149Z,8.90
2023-03-17T05:39:42.578Z,8.50
2023-03-17T05:44:44.573Z,9.95
2023-03-17T05:49:46.024Z,10.68
2023-03-17T05:54:49.035Z,7.43
2023-03-17T05:59:51.055Z,9.23
2023-03-17T06:04:52.423Z,8.68
2023-03-17T06:09:53.854Z,8.63
2023-03-17T06:14:55.417Z,10.63
2023-03-17T06:19:56.820Z,9.57
2023-03-17T06:24:58.243Z,9.75
2023-03-17T06:30:00.364Z,9.93
2023-03-17T06:35:02.024Z,9.73
2023-03-17T06:40:04.428Z,8.32
2023-03-17T06:45:06.470Z,9.43
2023-03-17T06:50:09.737Z,10.82
2023-03-17T06:55:12.158Z,9.65
2023-03-17T07:00:14.266Z,9.48
2023-03-17T07:05:15.851Z,10.70
2023-03-17T07:10:18.161Z,12.25
2023-03-17T07:15:20.797Z,10.07
2023-03-17T07:20:22.296Z,9.98
2023-03-17T07:25:23.906Z,12.13
2023-03-17T07:30:25.315Z,9.15
2023-03-17T07:35:28.689Z,9.48
2023-03-17T07:40:30.871Z,9.18
2023-03-17T07:45:35.288Z,11.43
2023-03-17T07:50:37.032Z,9.57
2023-03-17T07:55:38.954Z,9.75
2023-03-17T08:00:40.371Z,11.95
2023-03-17T08:05:41.803Z,9.23
2023-03-17T08:10:43.338Z,10.13
2023-03-17T08:15:45.107Z,9.20
2023-03-17T08:20:46.518Z,8.63
2023-03-17T08:25:48.846Z,9.45
2023-03-17T08:30:50.767Z,11.57
2023-03-17T08:35:53.482Z,10.82
2023-03-17T08:40:55.466Z,10.02
2023-03-17T08:46:02.489Z,9.82
2023-03-17T08:51:04.722Z,12.15
2023-03-17T08:56:07.069Z,10.57
2023-03-17T09:01:10.767Z,9.00
2023-03-17T09:06:13.652Z,9.75
2023-03-17T09:11:16.765Z,10.35
2023-03-17T09:16:18.448Z,9.65
2023-03-17T09:21:21.320Z,10.80
2023-03-17T09:26:25.146Z,9.88
2023-03-17T09:31:26.850Z,9.25
2023-03-17T09:36:28.424Z,9.07
2023-03-17T09:41:45.575Z,10.73
2023-03-17T09:47:05.815Z,10.85
2023-03-17T09:52:11.276Z,9.70
2023-03-17T09:57:16.484Z,10.25
2023-03-17T10:02:27.049Z,10.80
2023-03-17T10:07:38.234Z,10.75
2023-03-17T10:13:03.171Z,10.63
2023-03-17T10:18:14.848Z,12.35
2023-03-17T10:23:17.794Z,11.27
2023-03-17T10:28:32.948Z,10.05
2023-03-17T10:33:34.664Z,11.15
2023-03-17T10:38:36.974Z,10.65
2023-03-17T10:43:44.610Z,11.00
2023-03-17T10:48:50.463Z,10.05
2023-03-17T10:53:52.893Z,11.50
2023-03-17T10:58:55.589Z,14.35
2023-03-17T11:03:57.730Z,13.38
2023-03-17T11:09:05.785Z,13.70
2023-03-17T11:14:14.353Z,11.98
2023-03-17T11:19:17.125Z,12.68
2023-03-17T11:24:27.546Z,13.98
2023-03-17T11:29:34.533Z,11.38
2023-03-17T11:34:36.200Z,12.35
2023-03-17T11:39:44.479Z,14.60
2023-03-17T11:45:04.155Z,13.90
2023-03-17T11:50:13.077Z,12.68
2023-03-17T11:55:27.068Z,13.57
2023-03-17T12:00:33.820Z,12.02
2023-03-17T12:05:37.269Z,11.50
2023-03-17T12:10:50.595Z,11.73
2023-03-17T12:16:10.977Z,13.30
2023-03-17T12:21:27.497Z,13.45
2023-03-17T12:26:52.003Z,14.90
2023-03-17T12:31:57.080Z,12.30
2023-03-17T12:36:58.651Z,13.70
2023-03-17T12:42:02.977Z,14.10
2023-03-17T12:47:04.531Z,12.93
2023-03-17T12:52:05.964Z,13.05
2023-03-17T12:57:17.126Z,14.40
2023-03-17T13:02:24.660Z,13.13
2023-03-17T13:07:31.991Z,16.95
2023-03-17T13:12:55.362Z,17.38
2023-03-17T13:18:15.448Z,16.38
2023-03-17T13:23:17.549Z,12.23
2023-03-17T13:28:27.057Z,14.27
2023-03-17T13:33:31.492Z,15.73
2023-03-17T13:38:42.285Z,15.10
2023-03-17T13:44:02.241Z,15.05
2023-03-17T13:54:24.149Z,11.23
2023-03-17T14:04:47.624Z,15.07
2023-03-17T14:09:52.197Z,14.20
2023-03-17T14:15:06.982Z,12.18
2023-03-17T14:20:15.685Z,15.50
2023-03-17T14:25:18.830Z,14.60
2023-03-17T14:30:22.658Z,15.90
2023-03-17T14:35:24.367Z,14.55
2023-03-17T14:40:28.049Z,15.65
2023-03-17T14:45:46.505Z,15.75
2023-03-17T14:50:53.180Z,13.48
2023-03-17T14:55:54.805Z,13.23
2023-03-17T15:01:02.094Z,17.33
2023-03-17T15:06:23.906Z,12.77
2023-03-17T15:11:26.953Z,16.60
2023-03-17T15:16:30.167Z,15.43
2023-03-17T15:21:41.755Z,14.95
2023-03-17T15:26:43.228Z,16.02
2023-03-17T15:31:44.848Z,14.07
2023-03-17T15:36:47.625Z,14.98
2023-03-17T15:41:49.188Z,15.15
2023-03-17T15:46:51.153Z,16.75
2023-03-17T15:51:52.623Z,15.07
2023-03-17T15:56:54.055Z,15.52
2023-03-17T16:01:55.600Z,19.30
2023-03-17T16:06:57.171Z,16.23
2023-03-17T16:11:58.596Z,14.10
2023-03-17T16:17:00.118Z,16.80
2023-03-17T16:22:01.677Z,18.42
2023-03-17T16:27:03.329Z,15.73
2023-03-17T16:32:04.951Z,15.55
2023-03-17T16:37:08.403Z,15.45
2023-03-17T16:42:20.953Z,17.65
2023-03-17T16:47:22.398Z,13.70
2023-03-17T16:52:23.791Z,15.50
2023-03-17T16:57:25.294Z,18.75
2023-03-17T17:02:26.797Z,18.48
2023-03-17T17:07:28.389Z,16.90
2023-03-17T17:12:29.788Z,14.45
2023-03-17T17:17:31.449Z,17.30
2023-03-17T17:22:32.963Z,21.60
2023-03-17T17:27:34.462Z,19.27
2023-03-17T17:32:36.278Z,16.92
2023-03-17T17:37:37.845Z,19.10
2023-03-17T17:42:39.643Z,23.42
2023-03-17T17:47:41.469Z,20.95
2023-03-17T17:52:42.906Z,22.88
2023-03-17T17:57:44.431Z,22.63
2023-03-17T18:02:45.882Z,20.88
2023-03-17T18:07:47.332Z,18.08
2023-03-17T18:12:48.960Z,15.48
2023-03-17T18:17:51.506Z,20.15
2023-03-17T18:22:52.992Z,21.20
2023-03-17T18:27:55.059Z,18.05
2023-03-17T18:33:02.698Z,17.02
2023-03-17T18:38:04.138Z,17.48
2023-03-17T18:43:06.014Z,16.73
2023-03-17T18:48:07.457Z,17.85
2023-03-17T18:53:08.844Z,21.52
2023-03-17T18:58:10.282Z,18.77
2023-03-17T19:03:12.072Z,19.25
2023-03-17T19:08:15.280Z,21.77
2023-03-17T19:13:17.012Z,19.92
2023-03-17T19:18:18.506Z,22.40
2023-03-17T19:23:20.190Z,23.30
2023-03-17T19:28:21.913Z,25.13
2023-03-17T19:33:23.364Z,28.58
2023-03-17T19:38:25.586Z,22.65
2023-03-17T19:43:39.958Z,25.90
2023-03-17T19:48:42.895Z,23.48
2023-03-17T19:53:44.299Z,29.10
2023-03-17T19:58:46.005Z,23.40
2023-03-17T20:03:47.444Z,24.02
2023-03-17T20:08:48.928Z,23.02
2023-03-17T20:13:50.410Z,25.30
2023-03-17T20:18:51.865Z,25.70
2023-03-17T20:23:53.364Z,30.48
2023-03-17T20:28:56.227Z,31.15
2023-03-17T20:33:57.812Z,26.80
2023-03-17T20:38:59.288Z,27.83
2023-03-17T20:44:00.914Z,30.27
2023-03-17T20:49:03.223Z,30.15
2023-03-17T20:54:05.042Z,25.02
2023-03-17T20:59:09.422Z,27.17
2023-03-17T21:04:12.415Z,27.20
2023-03-17T21:09:14.119Z,28.05
2023-03-17T21:14:16.535Z,25.27
2023-03-17T21:19:18.177Z,27.98
2023-03-17T21:24:28.422Z,31.02
2023-03-17T21:29:30.778Z,31.55
2023-03-17T21:34:32.345Z,31.23
2023-03-17T21:39:34.211Z,30.92
2023-03-17T21:44:35.844Z,28.02
2023-03-17T21:49:37.255Z,25.95
2023-03-17T21:54:38.722Z,25.60
2023-03-17T21:59:40.863Z,24.17
2023-03-17T22:04:43.411Z,24.45
2023-03-17T22:09:44.939Z,27.48
2023-03-17T22:14:46.647Z,27.83
2023-03-17T22:19:48.684Z,25.98
2023-03-17T22:24:50.348Z,25.00
2023-03-17T22:29:51.817Z,23.65
2023-03-17T22:34:53.323Z,22.60
2023-03-17T22:39:54.747Z,24.83
2023-03-17T22:44:56.274Z,25.67
2023-03-17T22:49:57.732Z,25.83
2023-03-17T22:54:59.217Z,20.60
2023-03-17T23:00:00.687Z,21.85
2023-03-17T23:05:02.199Z,22.65
2023-03-17T23:10:04.537Z,22.25
2023-03-17T23:15:06.739Z,23.55
2023-03-17T23:20:09.124Z,24.17
2023-03-17T23:25:10.730Z,22.38
2023-03-17T23:30:13.205Z,19.70
2023-03-17T23:35:14.895Z,18.63
2023-03-17T23:40:17.313Z,20.63
2023-03-17T23:45:19.139Z,18.73
2023-03-17T23:50:21.139Z,22.25
2023-03-17T23:55:23.314Z,23.15
